createdAt,value
2022-11-16T00:02:10.444Z,17.00
2022-11-16T00:04:36.936Z,19.40
2022-11-16T00:07:03.365Z,16.50
2022-11-16T00:09:32.123Z,15.90
2022-11-16T00:12:07.256Z,18.73
2022-11-16T00:14:35.468Z,17.20
2022-11-16T00:17:02.401Z,17.80
2022-11-16T00:19:29.642Z,19.57
2022-11-16T00:21:56.008Z,19.47
2022-11-16T00:24:23.763Z,19.30
2022-11-16T00:26:51.099Z,18.13
2022-11-16T00:29:25.218Z,19.70
2022-11-16T00:31:53.659Z,20.60
2022-11-16T00:34:21.284Z,21.47
2022-11-16T00:36:48.295Z,20.17
2022-11-16T00:39:16.262Z,20.20
2022-11-16T00:41:43.424Z,20.03
2022-11-16T00:44:10.953Z,20.00
2022-11-16T00:46:37.387Z,21.20
2022-11-16T00:49:05.326Z,20.40
2022-11-16T00:51:32.431Z,17.63
2022-11-16T00:53:58.808Z,18.97
2022-11-16T00:56:25.234Z,18.40
2022-11-16T00:58:51.618Z,18.33
2022-11-16T01:01:18.521Z,19.37
2022-11-16T01:03:45.866Z,19.20
2022-11-16T01:06:14.230Z,20.40
2022-11-16T01:08:41.686Z,20.80
2022-11-16T01:11:28.433Z,18.83
2022-11-16T01:13:55.450Z,17.97
2022-11-16T01:16:23.392Z,20.23
2022-11-16T01:18:52.125Z,19.97
2022-11-16T01:21:19.668Z,19.23
2022-11-16T01:23:46.105Z,18.63
2022-11-16T01:26:12.522Z,18.47
2022-11-16T01:28:38.862Z,20.50
2022-11-16T01:31:05.788Z,18.00
2022-11-16T01:33:32.367Z,18.60
2022-11-16T01:35:58.690Z,17.83
2022-11-16T01:38:29.526Z,18.43
2022-11-16T01:40:56.433Z,17.20
2022-11-16T01:43:25.429Z,17.20
2022-11-16T01:45:52.461Z,16.23
2022-11-16T01:48:30.126Z,17.00
2022-11-16T01:50:57.761Z,19.03
2022-11-16T01:53:24.787Z,19.90
2022-11-16T01:55:51.975Z,19.50
2022-11-16T01:58:22.927Z,19.23
2022-11-16T02:00:49.478Z,18.90
2022-11-16T02:03:20.425Z,17.80
2022-11-16T02:05:54.331Z,17.40
2022-11-16T02:09:01.738Z,17.10
2022-11-16T02:11:50.949Z,17.60
2022-11-16T02:14:38.965Z,17.50
2022-11-16T02:17:32.826Z,16.43
2022-11-16T02:20:14.398Z,16.50
2022-11-16T02:23:12.773Z,16.20
2022-11-16T02:25:59.594Z,17.50
2022-11-16T02:28:57.788Z,16.50
2022-11-16T02:31:31.135Z,14.57
2022-11-16T02:33:59.118Z,17.07
2022-11-16T02:36:26.069Z,17.17
2022-11-16T02:39:01.469Z,19.20
2022-11-16T02:41:33.633Z,17.60
2022-11-16T02:44:11.247Z,16.97
2022-11-16T02:46:41.732Z,16.10
2022-11-16T02:49:14.044Z,17.43
2022-11-16T02:51:42.421Z,16.80
2022-11-16T02:54:12.914Z,17.00
2022-11-16T02:56:52.311Z,16.27
2022-11-16T02:59:19.799Z,17.20
2022-11-16T03:01:59.177Z,16.20
2022-11-16T03:04:30.118Z,14.93
2022-11-16T03:06:58.053Z,13.83
2022-11-16T03:09:31.424Z,13.97
2022-11-16T03:12:02.885Z,15.60
2022-11-16T03:14:47.751Z,13.93
2022-11-16T03:17:26.269Z,15.30
2022-11-16T03:20:15.002Z,14.70
2022-11-16T03:22:41.264Z,15.50
2022-11-16T03:25:11.292Z,15.43
2022-11-16T03:27:51.717Z,15.20
2022-11-16T03:30:23.720Z,15.77
2022-11-16T03:33:02.331Z,16.80
2022-11-16T03:36:02.533Z,14.90
2022-11-16T03:38:30.713Z,13.50
2022-11-16T03:41:02.604Z,12.77
2022-11-16T03:43:30.812Z,12.23
2022-11-16T03:45:58.078Z,12.53
2022-11-16T03:48:24.882Z,11.90
2022-11-16T03:50:52.276Z,11.10
2022-11-16T03:53:18.598Z,11.90
2022-11-16T03:55:49.632Z,11.43
2022-11-16T03:58:18.715Z,11.90
2022-11-16T04:00:45.368Z,9.80
2022-11-16T04:03:11.955Z,10.93
2022-11-16T04:05:57.337Z,11.03
2022-11-16T04:08:42.386Z,10.23
2022-11-16T04:11:32.824Z,9.60
2022-11-16T04:14:18.213Z,9.80
2022-11-16T04:17:02.975Z,8.90
2022-11-16T04:19:47.850Z,9.17
2022-11-16T04:22:40.350Z,10.00
2022-11-16T04:25:21.420Z,10.37
2022-11-16T04:28:07.225Z,8.77
2022-11-16T04:30:52.666Z,8.73
2022-11-16T04:33:37.714Z,9.30
2022-11-16T04:36:23.107Z,9.00
2022-11-16T04:38:49.437Z,8.13
2022-11-16T04:41:34.474Z,8.77
2022-11-16T04:44:00.819Z,8.27
2022-11-16T04:46:45.816Z,9.87
2022-11-16T04:49:12.160Z,7.30
2022-11-16T04:51:38.533Z,9.10
2022-11-16T04:54:04.968Z,8.07
2022-11-16T04:56:31.296Z,8.30
2022-11-16T04:58:57.699Z,7.67
2022-11-16T05:01:44.164Z,8.50
2022-11-16T05:04:10.925Z,6.13
2022-11-16T05:06:37.308Z,5.50
2022-11-16T05:09:03.826Z,7.10
2022-11-16T05:11:30.378Z,6.40
2022-11-16T05:13:56.750Z,6.90
2022-11-16T05:16:23.088Z,7.37
2022-11-16T05:19:09.383Z,7.13
2022-11-16T05:21:35.745Z,7.47
2022-11-16T05:24:21.088Z,7.90
2022-11-16T05:26:47.462Z,7.70
2022-11-16T05:29:13.909Z,7.10
2022-11-16T05:31:40.730Z,6.80
2022-11-16T05:34:08.849Z,7.23
2022-11-16T05:36:35.170Z,7.77
2022-11-16T05:39:01.699Z,8.10
2022-11-16T05:41:28.304Z,7.70
2022-11-16T05:43:55.631Z,6.40
2022-11-16T05:46:22.463Z,8.17
2022-11-16T05:48:49.169Z,6.77
2022-11-16T05:51:15.784Z,5.63
2022-11-16T05:53:44.036Z,6.03
2022-11-16T05:56:11.657Z,5.37
2022-11-16T05:58:38.029Z,5.80
2022-11-16T06:01:04.409Z,5.43
2022-11-16T06:03:31.853Z,4.70
2022-11-16T06:05:58.769Z,6.20
2022-11-16T06:08:25.117Z,5.87
2022-11-16T06:10:51.635Z,6.60
2022-11-16T06:13:18.238Z,6.00
2022-11-16T06:15:51.148Z,6.10
2022-11-16T06:18:17.543Z,6.07
2022-11-16T06:20:43.890Z,6.00
2022-11-16T06:23:10.227Z,6.80
2022-11-16T06:25:39.021Z,5.70
2022-11-16T06:28:08.100Z,6.90
2022-11-16T06:30:34.873Z,6.20
2022-11-16T06:33:01.233Z,6.50
2022-11-16T06:35:27.552Z,6.33
2022-11-16T06:37:53.884Z,5.90
2022-11-16T06:40:20.235Z,5.77
2022-11-16T06:42:46.847Z,6.37
2022-11-16T06:45:13.328Z,6.17
2022-11-16T06:47:39.710Z,6.23
2022-11-16T06:50:06.466Z,6.33
2022-11-16T06:52:32.825Z,6.30
2022-11-16T06:54:59.151Z,6.60
2022-11-16T06:57:25.486Z,7.20
2022-11-16T06:59:51.806Z,6.30
2022-11-16T07:02:21.193Z,7.37
2022-11-16T07:04:47.736Z,6.70
2022-11-16T07:07:16.335Z,7.13
2022-11-16T07:09:44.434Z,8.60
2022-11-16T07:12:10.790Z,8.03
2022-11-16T07:14:37.162Z,7.87
2022-11-16T07:17:09.124Z,7.90
2022-11-16T07:19:36.621Z,8.43
2022-11-16T07:22:04.104Z,8.53
2022-11-16T07:24:30.429Z,8.27
2022-11-16T07:26:57.236Z,8.50
2022-11-16T07:29:24.412Z,9.00
2022-11-16T07:31:50.998Z,9.50
2022-11-16T07:34:17.331Z,10.30
2022-11-16T07:36:44.081Z,10.57
2022-11-16T07:39:10.517Z,11.57
2022-11-16T07:41:42.308Z,11.50
2022-11-16T07:44:12.073Z,11.57
2022-11-16T07:46:47.771Z,11.83
2022-11-16T07:49:16.265Z,13.17
2022-11-16T07:51:43.244Z,13.43
2022-11-16T07:54:16.345Z,14.33
2022-11-16T07:56:42.900Z,13.50
2022-11-16T07:59:09.405Z,15.37
2022-11-16T08:01:36.025Z,15.27
2022-11-16T08:04:02.754Z,14.80
2022-11-16T08:06:31.417Z,15.60
2022-11-16T08:08:59.229Z,14.93
2022-11-16T08:11:26.555Z,15.03
2022-11-16T08:13:53.342Z,16.70
2022-11-16T08:16:22.326Z,16.03
2022-11-16T08:18:48.892Z,14.33
2022-11-16T08:21:17.792Z,14.57
2022-11-16T08:23:47.394Z,14.30
2022-11-16T08:26:17.529Z,15.07
2022-11-16T08:28:46.627Z,14.60
2022-11-16T08:31:31.310Z,13.43
2022-11-16T08:34:00.276Z,13.27
2022-11-16T08:36:26.664Z,13.90
2022-11-16T08:38:53.812Z,12.33
2022-11-16T08:41:21.246Z,13.90
2022-11-16T08:43:50.305Z,13.53
2022-11-16T08:46:17.441Z,12.87
2022-11-16T08:48:44.508Z,11.90
2022-11-16T08:51:19.220Z,11.33
2022-11-16T08:53:48.601Z,11.30
2022-11-16T08:56:16.670Z,9.70
2022-11-16T08:58:47.265Z,11.00
2022-11-16T09:01:19.605Z,9.97
2022-11-16T09:03:46.735Z,11.00
2022-11-16T09:06:13.922Z,11.03
2022-11-16T09:08:42.235Z,10.73
2022-11-16T09:11:11.854Z,11.00
2022-11-16T09:13:38.199Z,9.03
2022-11-16T09:16:05.477Z,9.60
2022-11-16T09:18:32.103Z,9.23
2022-11-16T09:20:58.887Z,9.13
2022-11-16T09:23:28.685Z,8.43
2022-11-16T09:25:55.017Z,8.07
2022-11-16T09:28:22.089Z,8.30
2022-11-16T09:30:50.950Z,8.30
2022-11-16T09:33:17.826Z,8.20
2022-11-16T09:35:44.277Z,7.13
2022-11-16T09:38:12.732Z,6.33
2022-11-16T09:40:46.135Z,6.23
2022-11-16T09:43:53.519Z,5.03
2022-11-16T09:46:32.119Z,5.33
2022-11-16T09:49:02.572Z,4.80
2022-11-16T09:51:33.722Z,5.93
2022-11-16T09:54:16.908Z,5.23
2022-11-16T09:56:46.604Z,4.87
2022-11-16T09:59:23.604Z,4.00
2022-11-16T10:01:58.638Z,4.00
2022-11-16T10:04:38.717Z,4.10
2022-11-16T10:07:15.076Z,3.67
2022-11-16T10:09:42.257Z,4.07
2022-11-16T10:12:20.729Z,4.23
2022-11-16T10:15:13.793Z,4.77
2022-11-16T10:18:05.034Z,5.23
2022-11-16T10:21:03.438Z,4.20
2022-11-16T10:24:04.461Z,2.80
2022-11-16T10:26:47.066Z,2.17
2022-11-16T10:29:36.455Z,2.60
2022-11-16T10:32:26.065Z,2.57
2022-11-16T10:35:06.334Z,2.33
2022-11-16T10:37:37.405Z,2.17
2022-11-16T10:40:24.938Z,2.57
2022-11-16T10:42:57.272Z,2.97
2022-11-16T10:45:31.200Z,2.63
2022-11-16T10:48:03.973Z,2.60
2022-11-16T10:50:39.188Z,2.70
2022-11-16T10:53:05.946Z,3.17
2022-11-16T10:55:32.326Z,2.60
2022-11-16T10:58:02.116Z,3.67
2022-11-16T11:00:40.189Z,2.83
2022-11-16T11:03:07.214Z,3.30
2022-11-16T11:05:36.092Z,2.77
2022-11-16T11:08:10.783Z,2.60
2022-11-16T11:10:40.020Z,2.43
2022-11-16T11:13:12.351Z,2.40
2022-11-16T11:15:40.929Z,2.00
2022-11-16T11:18:19.499Z,2.23
2022-11-16T11:20:52.606Z,2.07
2022-11-16T11:23:23.164Z,2.60
2022-11-16T11:25:52.004Z,2.03
2022-11-16T11:28:31.724Z,2.10
2022-11-16T11:31:11.513Z,2.43
2022-11-16T11:33:41.624Z,2.30
2022-11-16T11:36:21.608Z,1.97
2022-11-16T11:39:26.032Z,1.63
2022-11-16T11:42:14.229Z,1.40
2022-11-16T11:44:50.318Z,1.70
2022-11-16T11:48:04.237Z,1.50
2022-11-16T11:51:09.106Z,1.70
2022-11-16T11:53:58.656Z,1.70
2022-11-16T11:56:27.463Z,1.80
2022-11-16T11:58:55.314Z,1.80
2022-11-16T12:01:33.876Z,2.20
2022-11-16T12:04:24.901Z,1.80
2022-11-16T12:07:03.508Z,1.70
2022-11-16T12:09:32.885Z,1.60
2022-11-16T12:12:39.464Z,1.73
2022-11-16T12:15:47.820Z,1.97
2022-11-16T12:18:38.708Z,1.70
2022-11-16T12:21:13.226Z,1.57
2022-11-16T12:24:04.964Z,1.30
2022-11-16T12:26:49.492Z,1.37
2022-11-16T12:29:29.442Z,1.50
2022-11-16T12:32:29.434Z,1.73
2022-11-16T12:35:09.376Z,2.07
2022-11-16T12:37:49.317Z,1.50
2022-11-16T12:40:30.990Z,1.93
2022-11-16T12:43:23.877Z,1.90
2022-11-16T12:46:19.122Z,2.50
2022-11-16T12:49:20.273Z,2.17
2022-11-16T12:52:11.160Z,1.83
2022-11-16T12:55:28.021Z,1.70
2022-11-16T12:58:18.619Z,1.60
2022-11-16T13:01:05.720Z,1.77
2022-11-16T13:03:57.055Z,2.10
2022-11-16T13:06:42.547Z,1.60
2022-11-16T13:09:40.122Z,1.53
2022-11-16T13:12:15.125Z,1.93
2022-11-16T13:14:47.462Z,1.80
2022-11-16T13:17:22.779Z,1.90
2022-11-16T13:20:22.537Z,1.70
2022-11-16T13:23:35.834Z,1.83
2022-11-16T13:26:10.396Z,1.87
2022-11-16T13:28:48.959Z,2.10
2022-11-16T13:31:42.274Z,1.63
2022-11-16T13:34:22.751Z,1.70
2022-11-16T13:36:49.170Z,1.90
2022-11-16T13:39:22.869Z,1.60
2022-11-16T13:42:05.331Z,1.80
2022-11-16T13:44:32.855Z,2.07
2022-11-16T13:47:04.608Z,2.03
2022-11-16T13:49:38.502Z,1.80
2022-11-16T13:52:26.627Z,2.13
2022-11-16T13:54:56.091Z,2.07
2022-11-16T13:57:34.003Z,1.87
2022-11-16T14:00:00.428Z,1.93
2022-11-16T14:02:29.151Z,1.80
2022-11-16T14:04:58.731Z,1.67
2022-11-16T14:07:34.480Z,1.73
2022-11-16T14:10:02.165Z,1.10
2022-11-16T14:12:37.462Z,1.60
2022-11-16T14:15:23.695Z,1.80
2022-11-16T14:18:06.760Z,1.47
2022-11-16T14:20:57.835Z,2.03
2022-11-16T14:23:43.034Z,1.30
2022-11-16T14:26:44.120Z,1.20
2022-11-16T14:29:26.545Z,1.13
2022-11-16T14:31:58.606Z,1.57
2022-11-16T14:34:32.635Z,1.87
2022-11-16T14:37:00.261Z,1.63
2022-11-16T14:39:31.115Z,1.73
2022-11-16T14:42:19.876Z,1.57
2022-11-16T14:44:47.253Z,1.67
2022-11-16T14:47:28.804Z,1.70
2022-11-16T14:49:55.829Z,1.40
2022-11-16T14:52:43.856Z,3.93
2022-11-16T14:55:18.616Z,1.97
2022-11-16T14:57:45.197Z,1.60
2022-11-16T15:00:17.838Z,1.60
2022-11-16T15:02:51.520Z,1.13
2022-11-16T15:05:21.210Z,1.70
2022-11-16T15:07:52.006Z,1.90
2022-11-16T15:10:21.487Z,1.47
2022-11-16T15:12:51.788Z,1.40
2022-11-16T15:15:27.522Z,1.30
2022-11-16T15:17:59.825Z,1.50
2022-11-16T15:20:28.744Z,1.50
2022-11-16T15:22:57.932Z,1.30
2022-11-16T15:25:41.452Z,1.87
2022-11-16T15:28:28.542Z,1.87
2022-11-16T15:30:58.616Z,1.57
2022-11-16T15:33:32.355Z,1.90
2022-11-16T15:35:59.352Z,2.10
2022-11-16T15:38:32.789Z,1.60
2022-11-16T15:41:04.277Z,1.60
2022-11-16T15:43:45.065Z,1.70
2022-11-16T15:46:23.467Z,1.53
2022-11-16T15:48:50.357Z,2.00
2022-11-16T15:51:19.952Z,1.93
2022-11-16T15:53:51.660Z,1.97
2022-11-16T15:56:27.148Z,2.70
2022-11-16T15:59:19.665Z,2.67
2022-11-16T16:01:46.135Z,2.90
2022-11-16T16:04:17.192Z,2.07
2022-11-16T16:06:54.269Z,1.80
2022-11-16T16:09:33.984Z,2.17
2022-11-16T16:12:21.453Z,2.87
2022-11-16T16:14:49.861Z,3.87
2022-11-16T16:17:28.741Z,3.40
2022-11-16T16:20:02.521Z,3.30
2022-11-16T16:22:46.894Z,2.40
2022-11-16T16:25:31.650Z,2.43
2022-11-16T16:27:58.758Z,2.60
2022-11-16T16:30:26.954Z,2.40
2022-11-16T16:32:53.889Z,2.70
2022-11-16T16:35:22.697Z,2.70
2022-11-16T16:37:51.742Z,4.03
2022-11-16T16:40:18.863Z,4.13
2022-11-16T16:42:48.029Z,3.70
2022-11-16T16:45:39.010Z,3.30
2022-11-16T16:48:06.384Z,4.33
2022-11-16T16:50:32.720Z,4.20
2022-11-16T16:52:59.052Z,5.10
2022-11-16T16:55:26.060Z,4.63
2022-11-16T16:57:54.089Z,4.13
2022-11-16T17:00:20.701Z,3.70
2022-11-16T17:02:47.046Z,3.60
2022-11-16T17:05:13.898Z,3.40
2022-11-16T17:07:41.234Z,3.80
2022-11-16T17:10:07.922Z,3.50
2022-11-16T17:12:34.320Z,3.40
2022-11-16T17:15:00.739Z,2.83
2022-11-16T17:17:27.123Z,3.37
2022-11-16T17:19:53.688Z,2.93
2022-11-16T17:22:20.729Z,3.57
2022-11-16T17:24:47.305Z,4.40
2022-11-16T17:27:14.164Z,3.57
2022-11-16T17:29:40.493Z,4.20
2022-11-16T17:32:07.102Z,4.00
2022-11-16T17:34:33.427Z,4.10
2022-11-16T17:37:00.242Z,3.40
2022-11-16T17:39:26.615Z,3.47
2022-11-16T17:41:53.024Z,3.53
2022-11-16T17:44:21.887Z,3.30
2022-11-16T17:46:48.713Z,2.97
2022-11-16T17:49:15.074Z,3.30
2022-11-16T17:51:41.438Z,3.60
2022-11-16T17:54:08.017Z,3.43
2022-11-16T17:56:36.008Z,3.57
2022-11-16T17:59:02.407Z,2.97
2022-11-16T18:01:28.951Z,3.80
2022-11-16T18:03:57.080Z,3.60
2022-11-16T18:06:25.203Z,3.53
2022-11-16T18:08:52.458Z,3.90
2022-11-16T18:11:24.167Z,4.73
2022-11-16T18:13:55.723Z,4.40
2022-11-16T18:16:24.667Z,4.10
2022-11-16T18:18:57.003Z,5.00
2022-11-16T18:21:23.999Z,4.83
2022-11-16T18:23:50.488Z,3.73
2022-11-16T18:26:21.004Z,4.60
2022-11-16T18:28:48.874Z,4.90
2022-11-16T18:31:20.840Z,4.50
2022-11-16T18:33:49.332Z,4.10
2022-11-16T18:36:20.813Z,4.53
2022-11-16T18:38:47.227Z,5.20
2022-11-16T18:41:13.527Z,4.57
2022-11-16T18:43:52.132Z,4.30
2022-11-16T18:46:20.229Z,4.70
2022-11-16T18:48:49.921Z,3.60
2022-11-16T18:51:20.994Z,3.97
2022-11-16T18:53:47.419Z,4.00
2022-11-16T18:56:16.003Z,3.20
2022-11-16T18:58:51.967Z,3.23
2022-11-16T19:01:22.205Z,4.67
2022-11-16T19:03:48.974Z,4.17
2022-11-16T19:06:17.455Z,3.87
2022-11-16T19:08:46.871Z,29.20
2022-11-16T19:11:16.784Z,11.70
2022-11-16T19:13:44.532Z,4.67
2022-11-16T19:16:12.562Z,3.73
2022-11-16T19:18:39.399Z,3.17
2022-11-16T19:21:07.645Z,4.40
2022-11-16T19:23:38.963Z,3.60
2022-11-16T19:26:06.176Z,4.33
2022-11-16T19:28:37.170Z,3.33
2022-11-16T19:31:08.533Z,3.40
2022-11-16T19:33:35.449Z,3.47
2022-11-16T19:36:26.182Z,3.43
2022-11-16T19:38:53.347Z,3.10
2022-11-16T19:41:23.375Z,3.83
2022-11-16T19:43:52.491Z,2.90
2022-11-16T19:46:24.129Z,3.97
2022-11-16T19:48:51.620Z,3.73
2022-11-16T19:51:21.150Z,3.37
2022-11-16T19:53:51.013Z,3.20
2022-11-16T19:56:20.133Z,4.17
2022-11-16T19:58:47.064Z,3.57
2022-11-16T20:01:26.110Z,11.80
2022-11-16T20:03:52.537Z,7.20
2022-11-16T20:06:24.827Z,3.97
2022-11-16T20:08:53.912Z,4.57
2022-11-16T20:11:22.993Z,3.43
2022-11-16T20:13:50.751Z,3.47
2022-11-16T20:16:25.869Z,3.83
2022-11-16T20:18:53.373Z,5.20
2022-11-16T20:21:25.724Z,5.00
2022-11-16T20:23:53.712Z,3.97
2022-11-16T20:26:28.800Z,5.10
2022-11-16T20:28:55.299Z,3.60
2022-11-16T20:31:30.361Z,4.50
2022-11-16T20:34:05.318Z,3.70
2022-11-16T20:36:33.218Z,3.80
2022-11-16T20:39:00.628Z,4.07
2022-11-16T20:41:32.943Z,3.40
2022-11-16T20:44:01.332Z,3.30
2022-11-16T20:46:29.982Z,3.90
2022-11-16T20:48:57.459Z,4.47
2022-11-16T20:51:23.844Z,3.93
2022-11-16T20:53:50.489Z,3.90
2022-11-16T20:56:19.335Z,3.70
2022-11-16T20:58:46.868Z,3.60
2022-11-16T21:01:16.636Z,4.07
2022-11-16T21:03:44.517Z,4.07
2022-11-16T21:06:12.592Z,4.70
2022-11-16T21:08:40.021Z,5.10
2022-11-16T21:11:15.022Z,4.73
2022-11-16T21:14:00.103Z,3.97
2022-11-16T21:16:26.834Z,4.50
2022-11-16T21:18:54.305Z,4.53
2022-11-16T21:21:20.688Z,4.40
2022-11-16T21:23:51.538Z,3.67
2022-11-16T21:26:20.485Z,3.93
2022-11-16T21:28:46.892Z,4.30
2022-11-16T21:31:15.831Z,3.67
2022-11-16T21:33:43.786Z,3.20
2022-11-16T21:36:15.203Z,3.93
2022-11-16T21:38:42.366Z,3.50
2022-11-16T21:41:10.613Z,3.33
2022-11-16T21:43:37.778Z,3.37
2022-11-16T21:46:07.728Z,3.60
2022-11-16T21:48:36.063Z,4.87
2022-11-16T21:51:05.132Z,3.67
2022-11-16T21:53:31.659Z,3.63
2022-11-16T21:55:58.280Z,4.17
2022-11-16T21:58:25.074Z,3.80
2022-11-16T22:00:56.518Z,4.47
2022-11-16T22:03:28.359Z,4.00
2022-11-16T22:06:14.883Z,4.53
2022-11-16T22:08:41.718Z,4.57
2022-11-16T22:11:09.118Z,4.73
2022-11-16T22:13:36.774Z,4.57
2022-11-16T22:16:12.044Z,5.00
2022-11-16T22:18:38.706Z,4.37
2022-11-16T22:21:05.717Z,4.83
2022-11-16T22:23:33.281Z,4.53
2022-11-16T22:26:11.079Z,4.77
2022-11-16T22:28:38.102Z,4.40
2022-11-16T22:31:10.622Z,4.20
2022-11-16T22:33:37.669Z,4.70
2022-11-16T22:36:04.701Z,4.47
2022-11-16T22:38:31.707Z,4.17
2022-11-16T22:40:58.020Z,4.60
2022-11-16T22:43:27.197Z,5.30
2022-11-16T22:46:01.784Z,4.23
2022-11-16T22:48:37.144Z,4.50
2022-11-16T22:51:21.933Z,4.90
2022-11-16T22:53:55.714Z,5.33
2022-11-16T22:56:22.658Z,4.33
2022-11-16T22:58:49.349Z,5.07
2022-11-16T23:01:15.949Z,4.53
2022-11-16T23:03:42.564Z,4.40
2022-11-16T23:06:09.576Z,4.93
2022-11-16T23:08:36.564Z,4.97
2022-11-16T23:11:27.761Z,5.40
2022-11-16T23:14:13.124Z,6.33
2022-11-16T23:16:40.700Z,4.97
2022-11-16T23:19:29.083Z,5.90
2022-11-16T23:22:28.826Z,5.17
2022-11-16T23:25:13.829Z,5.00
2022-11-16T23:27:55.142Z,5.33
2022-11-16T23:30:21.500Z,4.93
2022-11-16T23:32:48.077Z,6.00
2022-11-16T23:35:14.579Z,4.37
2022-11-16T23:37:58.210Z,5.80
2022-11-16T23:40:27.528Z,5.30
2022-11-16T23:43:13.328Z,5.50
2022-11-16T23:45:40.881Z,5.60
2022-11-16T23:48:09.045Z,5.17
2022-11-16T23:50:36.120Z,5.73
2022-11-16T23:53:02.813Z,5.10
2022-11-16T23:55:29.186Z,5.20
2022-11-16T23:57:55.727Z,5.43
